createdAt,value
2023-05-20T00:04:14.128Z,4.70
2023-05-20T00:09:22.512Z,6.30
2023-05-20T00:14:29.126Z,6.37
2023-05-20T00:19:36.301Z,6.18
2023-05-20T00:24:44.436Z,5.38
2023-05-20T00:29:51.197Z,5.20
2023-05-20T00:35:01.299Z,8.43
2023-05-20T00:40:15.600Z,7.45
2023-05-20T00:45:22.530Z,4.60
2023-05-20T00:50:29.245Z,4.32
2023-05-20T00:55:37.903Z,4.13
2023-05-20T01:00:45.616Z,8.57
2023-05-20T01:05:52.265Z,3.85
2023-05-20T01:11:07.977Z,4.05
2023-05-20T01:16:16.736Z,6.38
2023-05-20T01:21:25.123Z,4.63
2023-05-20T01:26:33.756Z,7.40
2023-05-20T01:31:41.573Z,4.65
2023-05-20T01:36:48.516Z,4.82
2023-05-20T01:41:57.380Z,4.95
2023-05-20T01:47:03.698Z,5.72
2023-05-20T01:52:10.329Z,5.80
2023-05-20T01:57:18.728Z,5.35
2023-05-20T02:02:25.650Z,4.32
2023-05-20T02:07:32.649Z,5.30
2023-05-20T02:12:40.872Z,4.40
2023-05-20T02:17:48.705Z,4.47
2023-05-20T02:22:55.132Z,5.25
2023-05-20T02:28:06.194Z,4.03
2023-05-20T02:33:12.964Z,6.60
2023-05-20T02:38:19.413Z,3.70
2023-05-20T02:43:27.299Z,5.95
2023-05-20T02:48:33.805Z,9.15
2023-05-20T02:53:40.207Z,6.35
2023-05-20T02:58:50.540Z,6.20
2023-05-20T03:03:57.237Z,7.05
2023-05-20T03:09:03.755Z,4.78
2023-05-20T03:14:11.834Z,5.75
2023-05-20T03:19:18.125Z,5.03
2023-05-20T03:24:24.993Z,9.35
2023-05-20T03:29:33.804Z,3.28
2023-05-20T03:34:40.623Z,8.98
2023-05-20T03:39:47.134Z,5.43
2023-05-20T03:44:55.651Z,7.00
2023-05-20T03:50:02.247Z,4.07
2023-05-20T03:55:11.063Z,3.63
2023-05-20T04:00:19.734Z,5.05
2023-05-20T04:05:28.385Z,3.58
2023-05-20T04:10:36.023Z,6.07
2023-05-20T04:15:44.710Z,4.22
2023-05-20T04:20:51.683Z,3.47
2023-05-20T04:26:02.817Z,3.88
2023-05-20T04:31:12.944Z,4.28
2023-05-20T04:36:19.572Z,3.60
2023-05-20T04:41:29.208Z,4.03
2023-05-20T04:47:25.977Z,5.60
2023-05-20T05:00:25.045Z,4.80
2023-05-20T05:06:12.066Z,6.38
2023-05-20T05:11:42.199Z,5.22
2023-05-20T05:16:48.722Z,4.22
2023-05-20T05:21:56.866Z,6.38
2023-05-20T05:27:03.342Z,3.90
2023-05-20T05:32:10.489Z,4.70
2023-05-20T05:37:18.646Z,5.00
2023-05-20T05:42:26.061Z,3.47
2023-05-20T05:47:33.813Z,10.00
2023-05-20T05:52:41.963Z,5.78
2023-05-20T06:02:56.556Z,4.90
2023-05-20T06:08:17.591Z,5.70
2023-05-20T06:13:24.832Z,5.18
2023-05-20T06:18:31.456Z,5.13
2023-05-20T06:23:44.611Z,3.58
2023-05-20T06:28:53.663Z,4.07
2023-05-20T06:34:00.386Z,4.88
2023-05-20T06:39:12.784Z,4.97
2023-05-20T06:44:22.699Z,19.58
2023-05-20T06:49:39.257Z,4.97
2023-05-20T06:54:47.335Z,5.80
2023-05-20T06:59:53.852Z,8.53
2023-05-20T07:05:01.468Z,6.82
2023-05-20T07:10:12.730Z,6.80
2023-05-20T07:15:19.941Z,3.88
2023-05-20T07:20:26.468Z,5.20
2023-05-20T07:25:34.894Z,5.53
2023-05-20T07:30:41.720Z,3.28
2023-05-20T07:35:57.511Z,3.38
2023-05-20T07:41:05.818Z,3.65
2023-05-20T07:46:13.346Z,4.88
2023-05-20T07:51:20.455Z,6.15
2023-05-20T07:56:28.739Z,7.30
2023-05-20T08:01:36.976Z,4.55
2023-05-20T08:06:46.359Z,3.40
2023-05-20T08:12:01.791Z,4.38
2023-05-20T08:17:08.824Z,5.50
2023-05-20T08:22:15.688Z,5.00
2023-05-20T08:27:24.280Z,4.03
2023-05-20T08:32:31.097Z,6.83
2023-05-20T08:37:37.811Z,5.28
2023-05-20T08:42:46.912Z,7.82
2023-05-20T08:47:55.298Z,4.63
2023-05-20T08:53:02.239Z,4.45
2023-05-20T08:58:10.740Z,3.80
2023-05-20T09:03:17.468Z,4.57
2023-05-20T09:08:27.887Z,10.45
2023-05-20T09:13:35.706Z,9.20
2023-05-20T09:18:43.834Z,4.60
2023-05-20T09:23:50.923Z,6.85
2023-05-20T09:29:00.422Z,3.60
2023-05-20T09:34:09.321Z,7.78
2023-05-20T09:39:18.756Z,11.38
2023-05-20T09:44:26.783Z,9.07
2023-05-20T09:49:34.252Z,6.55
2023-05-20T09:54:41.482Z,4.97
2023-05-20T09:59:49.766Z,4.93
2023-05-20T10:04:59.921Z,6.32
2023-05-20T10:10:19.902Z,6.80
2023-05-20T10:15:36.585Z,4.10
2023-05-20T10:20:50.417Z,5.65
2023-05-20T10:25:59.154Z,5.57
2023-05-20T10:36:32.557Z,7.47
2023-05-20T10:41:39.127Z,6.60
2023-05-20T10:47:00.244Z,5.95
2023-05-20T10:52:14.865Z,11.57
2023-05-20T10:57:21.719Z,6.23
2023-05-20T11:02:30.434Z,7.82
2023-05-20T11:07:36.821Z,7.82
2023-05-20T11:12:43.458Z,6.15
2023-05-20T11:18:01.871Z,8.68
2023-05-20T11:23:13.225Z,6.93
2023-05-20T11:28:21.693Z,4.85
2023-05-20T11:38:35.852Z,6.20
2023-05-20T11:43:43.371Z,5.38
2023-05-20T11:48:57.334Z,7.17
2023-05-20T11:54:05.411Z,6.50
2023-05-20T11:59:12.912Z,4.65
2023-05-20T12:04:21.536Z,8.43
2023-05-20T12:14:34.631Z,9.60
2023-05-20T12:19:42.769Z,9.07
2023-05-20T12:24:49.412Z,7.78
2023-05-20T12:29:56.218Z,8.15
2023-05-20T12:35:04.412Z,7.60
2023-05-20T12:40:14.318Z,18.52
2023-05-20T12:45:21.029Z,6.60
2023-05-20T12:50:29.480Z,5.50
2023-05-20T12:55:36.117Z,8.38
2023-05-20T13:00:42.870Z,8.50
2023-05-20T13:05:51.059Z,6.95
2023-05-20T13:10:57.784Z,7.30
2023-05-20T13:16:04.951Z,9.77
2023-05-20T13:26:21.444Z,14.03
2023-05-20T13:31:28.193Z,6.43
2023-05-20T13:36:36.783Z,4.90
2023-05-20T13:46:50.158Z,5.60
2023-05-20T13:51:58.292Z,7.30
2023-05-20T13:57:08.265Z,9.85
2023-05-20T14:02:14.982Z,11.32
2023-05-20T14:07:23.292Z,6.63
2023-05-20T14:12:30.104Z,4.75
2023-05-20T14:17:36.754Z,8.00
2023-05-20T14:22:45.061Z,6.95
2023-05-20T14:27:52.148Z,6.75
2023-05-20T14:32:58.763Z,10.27
2023-05-20T14:38:07.250Z,16.58
2023-05-20T14:48:21.202Z,5.20
2023-05-20T14:53:29.257Z,9.67
2023-05-20T14:58:36.724Z,6.60
2023-05-20T15:03:43.593Z,6.68
2023-05-20T15:08:52.179Z,6.40
2023-05-20T15:13:59.317Z,6.50
2023-05-20T15:19:05.954Z,7.63
2023-05-20T15:24:14.148Z,6.47
2023-05-20T15:29:20.734Z,5.78
2023-05-20T15:34:27.575Z,6.38
2023-05-20T15:39:38.564Z,8.88
2023-05-20T15:44:45.062Z,9.65
2023-05-20T15:49:51.535Z,4.18
2023-05-20T15:54:59.822Z,14.60
2023-05-20T16:00:10.667Z,11.95
2023-05-20T16:05:18.146Z,7.93
2023-05-20T16:10:27.900Z,5.55
2023-05-20T16:15:36.845Z,5.03
2023-05-20T16:20:43.672Z,5.28
2023-05-20T16:25:52.347Z,7.65
2023-05-20T16:30:59.708Z,9.35
2023-05-20T16:36:07.054Z,5.32
2023-05-20T16:41:18.351Z,3.67
2023-05-20T16:46:26.056Z,5.03
2023-05-20T16:51:32.992Z,5.37
2023-05-20T16:56:41.632Z,6.70
2023-05-20T17:01:48.950Z,12.65
2023-05-20T17:06:57.395Z,7.72
2023-05-20T17:17:14.307Z,5.77
2023-05-20T17:22:21.721Z,10.88
2023-05-20T17:27:30.080Z,7.75
2023-05-20T17:32:36.836Z,8.00
2023-05-20T17:37:43.559Z,7.38
2023-05-20T17:42:51.983Z,9.52
2023-05-20T17:47:59.039Z,12.57
2023-05-20T17:53:05.678Z,12.75
2023-05-20T17:58:14.351Z,11.80
2023-05-20T18:03:23.337Z,11.10
2023-05-20T18:08:30.714Z,10.07
2023-05-20T18:13:39.023Z,30.35
2023-05-20T18:18:46.404Z,30.23
2023-05-20T18:23:53.703Z,14.50
2023-05-20T18:29:02.501Z,16.80
2023-05-20T18:34:09.596Z,19.20
2023-05-20T18:39:20.847Z,16.30
2023-05-20T18:44:29.536Z,14.27
2023-05-20T18:54:42.886Z,38.55
2023-05-20T18:59:51.225Z,28.45
2023-05-20T19:04:58.824Z,12.68
2023-05-20T19:10:06.834Z,27.17
2023-05-20T19:15:16.247Z,20.43
2023-05-20T19:20:23.436Z,14.75
2023-05-20T19:25:30.141Z,9.45
2023-05-20T19:30:38.336Z,18.73
2023-05-20T19:35:45.455Z,11.27
2023-05-20T19:40:53.230Z,16.98
2023-05-20T19:46:01.944Z,36.80
2023-05-20T19:51:08.584Z,9.23
2023-05-20T19:56:19.683Z,21.88
2023-05-20T20:01:28.841Z,10.90
2023-05-20T20:06:36.440Z,12.98
2023-05-20T20:11:44.994Z,13.40
2023-05-20T20:16:55.702Z,7.50
2023-05-20T20:22:03.229Z,12.98
2023-05-20T20:27:10.940Z,19.90
2023-05-20T20:32:19.582Z,15.70
2023-05-20T20:37:27.452Z,9.70
2023-05-20T20:42:35.211Z,16.23
2023-05-20T20:47:45.403Z,14.53
2023-05-20T20:52:52.450Z,19.45
2023-05-20T20:58:03.117Z,29.30
2023-05-20T21:03:12.409Z,10.38
2023-05-20T21:08:22.413Z,10.32
2023-05-20T21:13:29.655Z,13.15
2023-05-20T21:18:38.208Z,13.02
2023-05-20T21:23:45.469Z,15.02
2023-05-20T21:28:52.645Z,11.70
2023-05-20T21:34:01.053Z,15.57
2023-05-20T21:39:07.956Z,43.40
2023-05-20T21:44:15.093Z,33.17
2023-05-20T21:49:23.389Z,55.90
2023-05-20T21:54:30.213Z,18.23
2023-05-20T21:59:36.918Z,27.85
2023-05-20T22:04:45.038Z,13.05
2023-05-20T22:09:52.101Z,13.25
2023-05-20T22:14:59.315Z,24.13
2023-05-20T22:20:10.884Z,28.95
2023-05-20T22:25:18.115Z,27.13
2023-05-20T22:30:25.052Z,28.02
2023-05-20T22:35:33.471Z,18.10
2023-05-20T22:40:40.811Z,15.90
2023-05-20T22:45:47.561Z,19.77
2023-05-20T22:50:56.401Z,18.73
2023-05-20T23:01:10.754Z,15.82
2023-05-20T23:06:19.239Z,184.82
2023-05-20T23:11:26.828Z,54.08
2023-05-20T23:16:34.580Z,24.40
2023-05-20T23:21:43.228Z,116.63
2023-05-20T23:26:49.701Z,40.13
2023-05-20T23:31:56.146Z,215.10
2023-05-20T23:37:03.987Z,428.90
2023-05-20T23:42:10.420Z,170.68
2023-05-20T23:47:19.033Z,34.35
2023-05-20T23:52:28.513Z,20.75
2023-05-20T23:57:34.988Z,16.42
